sensor_id;sensor_type;location;lat;lon;timestamp;temperature;humidity
16384;DHT22;8301;51.440;6.610;2022-11-09T00:00:19;13.90;99.90
16384;DHT22;8301;51.440;6.610;2022-11-09T00:02:45;13.90;99.90
16384;DHT22;8301;51.440;6.610;2022-11-09T00:05:12;13.90;99.90
16384;DHT22;8301;51.440;6.610;2022-11-09T00:07:39;13.90;99.90
16384;DHT22;8301;51.440;6.610;2022-11-09T00:10:06;13.90;99.90
16384;DHT22;8301;51.440;6.610;2022-11-09T00:12:33;13.90;99.90
16384;DHT22;8301;51.440;6.610;2022-11-09T00:15:00;13.80;99.90
16384;DHT22;8301;51.440;6.610;2022-11-09T00:17:26;13.80;99.90
16384;DHT22;8301;51.440;6.610;2022-11-09T00:19:53;13.80;99.90
16384;DHT22;8301;51.440;6.610;2022-11-09T00:22:20;13.80;99.90
16384;DHT22;8301;51.440;6.610;2022-11-09T00:24:48;13.70;99.90
16384;DHT22;8301;51.440;6.610;2022-11-09T00:27:15;13.70;99.90
16384;DHT22;8301;51.440;6.610;2022-11-09T00:29:42;13.60;99.90
16384;DHT22;8301;51.440;6.610;2022-11-09T00:32:09;13.60;99.90
16384;DHT22;8301;51.440;6.610;2022-11-09T00:34:36;13.50;99.90
16384;DHT22;8301;51.440;6.610;2022-11-09T00:37:03;13.50;99.90
16384;DHT22;8301;51.440;6.610;2022-11-09T00:39:34;13.40;99.90
16384;DHT22;8301;51.440;6.610;2022-11-09T00:42:01;13.40;99.90
16384;DHT22;8301;51.440;6.610;2022-11-09T00:44:28;13.40;99.90
16384;DHT22;8301;51.440;6.610;2022-11-09T00:46:55;13.30;99.90
16384;DHT22;8301;51.440;6.610;2022-11-09T00:49:22;13.30;99.90
16384;DHT22;8301;51.440;6.610;2022-11-09T00:51:49;13.30;99.90
16384;DHT22;8301;51.440;6.610;2022-11-09T00:54:16;13.20;99.90
16384;DHT22;8301;51.440;6.610;2022-11-09T00:56:43;13.20;99.90
16384;DHT22;8301;51.440;6.610;2022-11-09T00:59:10;13.10;99.90
16384;DHT22;8301;51.440;6.610;2022-11-09T01:01:39;13.10;99.90
16384;DHT22;8301;51.440;6.610;2022-11-09T01:04:05;13.10;99.90
16384;DHT22;8301;51.440;6.610;2022-11-09T01:06:33;13.10;99.90
16384;DHT22;8301;51.440;6.610;2022-11-09T01:09:00;13.10;99.90
16384;DHT22;8301;51.440;6.610;2022-11-09T01:11:28;13.00;99.90
16384;DHT22;8301;51.440;6.610;2022-11-09T01:14:01;13.00;99.90
16384;DHT22;8301;51.440;6.610;2022-11-09T01:16:27;13.10;99.90
16384;DHT22;8301;51.440;6.610;2022-11-09T01:18:55;13.10;99.90
16384;DHT22;8301;51.440;6.610;2022-11-09T01:21:22;13.10;99.90
16384;DHT22;8301;51.440;6.610;2022-11-09T01:23:49;13.10;99.90
16384;DHT22;8301;51.440;6.610;2022-11-09T01:26:15;13.10;99.90
16384;DHT22;8301;51.440;6.610;2022-11-09T01:28:44;13.20;99.90
16384;DHT22;8301;51.440;6.610;2022-11-09T01:31:12;13.20;99.90
16384;DHT22;8301;51.440;6.610;2022-11-09T01:33:39;13.20;99.90
16384;DHT22;8301;51.440;6.610;2022-11-09T01:36:07;13.20;99.90
16384;DHT22;8301;51.440;6.610;2022-11-09T01:38:36;13.20;99.90
16384;DHT22;8301;51.440;6.610;2022-11-09T01:41:05;13.20;99.90
16384;DHT22;8301;51.440;6.610;2022-11-09T01:43:32;13.20;99.90
16384;DHT22;8301;51.440;6.610;2022-11-09T01:46:23;13.20;99.90
16384;DHT22;8301;51.440;6.610;2022-11-09T01:51:27;13.20;99.90
16384;DHT22;8301;51.440;6.610;2022-11-09T01:53:57;13.20;99.90
16384;DHT22;8301;51.440;6.610;2022-11-09T01:56:24;13.20;99.90
16384;DHT22;8301;51.440;6.610;2022-11-09T01:58:54;13.10;99.90
16384;DHT22;8301;51.440;6.610;2022-11-09T02:01:21;13.10;99.90
16384;DHT22;8301;51.440;6.610;2022-11-09T02:03:53;13.10;99.90
16384;DHT22;8301;51.440;6.610;2022-11-09T02:06:17;13.00;99.90
16384;DHT22;8301;51.440;6.610;2022-11-09T02:08:46;13.00;99.90
16384;DHT22;8301;51.440;6.610;2022-11-09T02:11:18;13.00;99.90
16384;DHT22;8301;51.440;6.610;2022-11-09T02:13:56;13.00;99.90
16384;DHT22;8301;51.440;6.610;2022-11-09T02:16:23;13.00;99.90
16384;DHT22;8301;51.440;6.610;2022-11-09T02:18:58;12.90;99.90
16384;DHT22;8301;51.440;6.610;2022-11-09T02:21:30;12.90;99.90
16384;DHT22;8301;51.440;6.610;2022-11-09T02:23:57;12.90;99.90
16384;DHT22;8301;51.440;6.610;2022-11-09T02:26:32;12.90;99.90
16384;DHT22;8301;51.440;6.610;2022-11-09T02:29:00;12.90;99.90
16384;DHT22;8301;51.440;6.610;2022-11-09T02:31:30;12.90;99.90
16384;DHT22;8301;51.440;6.610;2022-11-09T02:34:01;12.90;99.90
16384;DHT22;8301;51.440;6.610;2022-11-09T02:36:29;12.90;99.90
16384;DHT22;8301;51.440;6.610;2022-11-09T02:39:04;12.90;99.90
16384;DHT22;8301;51.440;6.610;2022-11-09T02:41:31;13.00;99.90
16384;DHT22;8301;51.440;6.610;2022-11-09T02:44:00;13.00;99.90
16384;DHT22;8301;51.440;6.610;2022-11-09T02:46:32;13.00;99.90
16384;DHT22;8301;51.440;6.610;2022-11-09T02:48:59;13.00;99.90
16384;DHT22;8301;51.440;6.610;2022-11-09T02:51:27;13.00;99.90
16384;DHT22;8301;51.440;6.610;2022-11-09T02:53:54;13.10;99.90
16384;DHT22;8301;51.440;6.610;2022-11-09T02:56:21;13.10;99.90
16384;DHT22;8301;51.440;6.610;2022-11-09T02:58:48;13.10;99.90
16384;DHT22;8301;51.440;6.610;2022-11-09T03:01:15;13.20;99.90
16384;DHT22;8301;51.440;6.610;2022-11-09T03:03:45;13.20;99.90
16384;DHT22;8301;51.440;6.610;2022-11-09T03:06:12;13.20;99.90
16384;DHT22;8301;51.440;6.610;2022-11-09T03:08:39;13.20;99.90
16384;DHT22;8301;51.440;6.610;2022-11-09T03:11:06;13.20;99.90
16384;DHT22;8301;51.440;6.610;2022-11-09T03:13:33;13.20;99.90
16384;DHT22;8301;51.440;6.610;2022-11-09T03:16:12;13.30;99.90
16384;DHT22;8301;51.440;6.610;2022-11-09T03:18:39;13.20;99.90
16384;DHT22;8301;51.440;6.610;2022-11-09T03:21:06;13.20;99.90
16384;DHT22;8301;51.440;6.610;2022-11-09T03:23:33;13.20;99.90
16384;DHT22;8301;51.440;6.610;2022-11-09T03:26:00;13.30;99.90
16384;DHT22;8301;51.440;6.610;2022-11-09T03:28:31;13.30;99.90
16384;DHT22;8301;51.440;6.610;2022-11-09T03:30:58;13.30;99.90
16384;DHT22;8301;51.440;6.610;2022-11-09T03:33:25;13.30;99.90
16384;DHT22;8301;51.440;6.610;2022-11-09T03:35:55;13.40;99.90
16384;DHT22;8301;51.440;6.610;2022-11-09T03:38:30;13.50;99.90
16384;DHT22;8301;51.440;6.610;2022-11-09T03:41:01;13.40;99.90
16384;DHT22;8301;51.440;6.610;2022-11-09T03:43:28;13.40;99.90
16384;DHT22;8301;51.440;6.610;2022-11-09T03:48:29;13.50;99.90
16384;DHT22;8301;51.440;6.610;2022-11-09T03:50:59;13.60;99.90
16384;DHT22;8301;51.440;6.610;2022-11-09T03:53:28;13.60;99.90
16384;DHT22;8301;51.440;6.610;2022-11-09T03:55:56;13.60;99.90
16384;DHT22;8301;51.440;6.610;2022-11-09T03:58:23;13.60;99.90
16384;DHT22;8301;51.440;6.610;2022-11-09T04:00:52;13.60;99.90
16384;DHT22;8301;51.440;6.610;2022-11-09T04:03:19;13.60;99.90
16384;DHT22;8301;51.440;6.610;2022-11-09T04:05:46;13.80;99.90
16384;DHT22;8301;51.440;6.610;2022-11-09T04:10:42;13.70;99.90
16384;DHT22;8301;51.440;6.610;2022-11-09T04:13:10;13.70;99.90
16384;DHT22;8301;51.440;6.610;2022-11-09T04:15:38;13.70;99.90
16384;DHT22;8301;51.440;6.610;2022-11-09T04:18:05;13.70;99.90
16384;DHT22;8301;51.440;6.610;2022-11-09T04:20:35;13.70;99.90
16384;DHT22;8301;51.440;6.610;2022-11-09T04:23:02;13.70;99.90
16384;DHT22;8301;51.440;6.610;2022-11-09T04:25:32;13.70;99.90
16384;DHT22;8301;51.440;6.610;2022-11-09T04:28:06;13.70;99.90
16384;DHT22;8301;51.440;6.610;2022-11-09T04:30:34;13.70;99.90
16384;DHT22;8301;51.440;6.610;2022-11-09T04:33:03;13.70;99.90
16384;DHT22;8301;51.440;6.610;2022-11-09T04:35:31;13.70;99.90
16384;DHT22;8301;51.440;6.610;2022-11-09T04:38:00;13.70;99.90
16384;DHT22;8301;51.440;6.610;2022-11-09T04:40:29;13.70;99.90
16384;DHT22;8301;51.440;6.610;2022-11-09T04:43:03;13.70;99.90
16384;DHT22;8301;51.440;6.610;2022-11-09T04:45:35;13.70;99.90
16384;DHT22;8301;51.440;6.610;2022-11-09T04:48:03;13.40;99.90
16384;DHT22;8301;51.440;6.610;2022-11-09T04:50:31;13.40;99.90
16384;DHT22;8301;51.440;6.610;2022-11-09T04:53:06;13.30;99.90
16384;DHT22;8301;51.440;6.610;2022-11-09T04:55:33;13.30;99.90
16384;DHT22;8301;51.440;6.610;2022-11-09T04:58:01;13.20;99.90
16384;DHT22;8301;51.440;6.610;2022-11-09T05:00:30;13.20;99.90
16384;DHT22;8301;51.440;6.610;2022-11-09T05:02:59;13.20;99.90
16384;DHT22;8301;51.440;6.610;2022-11-09T05:05:28;13.10;99.90
16384;DHT22;8301;51.440;6.610;2022-11-09T05:07:55;13.20;99.90
16384;DHT22;8301;51.440;6.610;2022-11-09T05:10:23;13.20;99.90
16384;DHT22;8301;51.440;6.610;2022-11-09T05:12:55;13.20;99.90
16384;DHT22;8301;51.440;6.610;2022-11-09T05:15:22;13.20;99.90
16384;DHT22;8301;51.440;6.610;2022-11-09T05:17:49;13.20;99.90
16384;DHT22;8301;51.440;6.610;2022-11-09T05:20:16;13.20;99.90
16384;DHT22;8301;51.440;6.610;2022-11-09T05:22:45;13.20;99.90
16384;DHT22;8301;51.440;6.610;2022-11-09T05:25:29;13.20;99.90
16384;DHT22;8301;51.440;6.610;2022-11-09T05:27:56;13.20;99.90
16384;DHT22;8301;51.440;6.610;2022-11-09T05:30:26;13.20;99.90
16384;DHT22;8301;51.440;6.610;2022-11-09T05:32:53;13.20;99.90
16384;DHT22;8301;51.440;6.610;2022-11-09T05:35:21;13.20;99.90
16384;DHT22;8301;51.440;6.610;2022-11-09T05:37:49;13.20;99.90
16384;DHT22;8301;51.440;6.610;2022-11-09T05:40:16;13.20;99.90
16384;DHT22;8301;51.440;6.610;2022-11-09T05:42:44;13.20;99.90
16384;DHT22;8301;51.440;6.610;2022-11-09T05:45:12;13.20;99.90
16384;DHT22;8301;51.440;6.610;2022-11-09T05:47:40;13.20;99.90
16384;DHT22;8301;51.440;6.610;2022-11-09T05:50:08;13.20;99.90
16384;DHT22;8301;51.440;6.610;2022-11-09T05:52:35;13.20;99.90
16384;DHT22;8301;51.440;6.610;2022-11-09T05:55:05;13.20;99.90
16384;DHT22;8301;51.440;6.610;2022-11-09T05:57:34;13.20;99.90
16384;DHT22;8301;51.440;6.610;2022-11-09T06:00:00;13.20;99.90
16384;DHT22;8301;51.440;6.610;2022-11-09T06:02:35;13.20;99.90
16384;DHT22;8301;51.440;6.610;2022-11-09T06:05:03;13.10;99.90
16384;DHT22;8301;51.440;6.610;2022-11-09T06:07:31;13.00;99.90
16384;DHT22;8301;51.440;6.610;2022-11-09T06:10:02;13.00;99.90
16384;DHT22;8301;51.440;6.610;2022-11-09T06:12:31;13.00;99.90
16384;DHT22;8301;51.440;6.610;2022-11-09T06:15:00;12.90;99.90
16384;DHT22;8301;51.440;6.610;2022-11-09T06:17:27;12.90;99.90
16384;DHT22;8301;51.440;6.610;2022-11-09T06:19:54;12.90;99.90
16384;DHT22;8301;51.440;6.610;2022-11-09T06:22:21;12.90;99.90
16384;DHT22;8301;51.440;6.610;2022-11-09T06:24:49;12.90;99.90
16384;DHT22;8301;51.440;6.610;2022-11-09T06:27:21;12.90;99.90
16384;DHT22;8301;51.440;6.610;2022-11-09T06:29:48;12.80;99.90
16384;DHT22;8301;51.440;6.610;2022-11-09T06:32:18;12.70;99.90
16384;DHT22;8301;51.440;6.610;2022-11-09T06:34:45;12.70;99.90
16384;DHT22;8301;51.440;6.610;2022-11-09T06:37:13;12.70;99.90
16384;DHT22;8301;51.440;6.610;2022-11-09T06:39:45;12.60;99.90
16384;DHT22;8301;51.440;6.610;2022-11-09T06:42:13;12.60;99.90
16384;DHT22;8301;51.440;6.610;2022-11-09T06:44:40;12.60;99.90
16384;DHT22;8301;51.440;6.610;2022-11-09T06:47:09;12.50;99.90
16384;DHT22;8301;51.440;6.610;2022-11-09T06:49:36;12.50;99.90
16384;DHT22;8301;51.440;6.610;2022-11-09T06:52:03;12.50;99.90
16384;DHT22;8301;51.440;6.610;2022-11-09T06:54:30;12.50;99.90
16384;DHT22;8301;51.440;6.610;2022-11-09T06:57:01;12.60;99.90
16384;DHT22;8301;51.440;6.610;2022-11-09T06:59:27;12.50;99.90
16384;DHT22;8301;51.440;6.610;2022-11-09T07:01:54;12.40;99.90
16384;DHT22;8301;51.440;6.610;2022-11-09T07:04:23;12.30;99.90
16384;DHT22;8301;51.440;6.610;2022-11-09T07:06:49;12.30;99.90
16384;DHT22;8301;51.440;6.610;2022-11-09T07:09:17;12.30;99.90
16384;DHT22;8301;51.440;6.610;2022-11-09T07:11:47;12.40;99.90
16384;DHT22;8301;51.440;6.610;2022-11-09T07:14:14;12.40;99.90
16384;DHT22;8301;51.440;6.610;2022-11-09T07:16:42;12.50;99.90
16384;DHT22;8301;51.440;6.610;2022-11-09T07:19:09;12.50;99.90
16384;DHT22;8301;51.440;6.610;2022-11-09T07:21:35;12.50;99.90
16384;DHT22;8301;51.440;6.610;2022-11-09T07:24:02;12.50;99.90
16384;DHT22;8301;51.440;6.610;2022-11-09T07:26:29;12.50;99.90
16384;DHT22;8301;51.440;6.610;2022-11-09T07:28:57;12.50;99.90
16384;DHT22;8301;51.440;6.610;2022-11-09T07:31:24;12.50;99.90
16384;DHT22;8301;51.440;6.610;2022-11-09T07:33:52;12.50;99.90
16384;DHT22;8301;51.440;6.610;2022-11-09T07:36:19;12.50;99.90
16384;DHT22;8301;51.440;6.610;2022-11-09T07:38:46;12.70;99.90
16384;DHT22;8301;51.440;6.610;2022-11-09T07:41:14;12.90;99.90
16384;DHT22;8301;51.440;6.610;2022-11-09T07:46:08;13.00;99.90
16384;DHT22;8301;51.440;6.610;2022-11-09T07:48:36;13.20;99.90
16384;DHT22;8301;51.440;6.610;2022-11-09T07:51:05;13.20;99.90
16384;DHT22;8301;51.440;6.610;2022-11-09T07:53:32;13.30;99.90
16384;DHT22;8301;51.440;6.610;2022-11-09T07:56:01;13.30;99.90
16384;DHT22;8301;51.440;6.610;2022-11-09T07:58:29;13.10;99.90
16384;DHT22;8301;51.440;6.610;2022-11-09T08:03:23;13.20;99.90
16384;DHT22;8301;51.440;6.610;2022-11-09T08:05:50;13.30;99.90
16384;DHT22;8301;51.440;6.610;2022-11-09T08:08:17;13.50;99.90
16384;DHT22;8301;51.440;6.610;2022-11-09T08:10:45;13.60;99.90
16384;DHT22;8301;51.440;6.610;2022-11-09T08:13:13;14.00;99.90
16384;DHT22;8301;51.440;6.610;2022-11-09T08:18:15;14.00;99.90
16384;DHT22;8301;51.440;6.610;2022-11-09T08:20:41;14.10;99.90
16384;DHT22;8301;51.440;6.610;2022-11-09T08:23:11;14.40;99.90
16384;DHT22;8301;51.440;6.610;2022-11-09T08:25:39;14.70;99.90
16384;DHT22;8301;51.440;6.610;2022-11-09T08:28:07;14.80;99.90
16384;DHT22;8301;51.440;6.610;2022-11-09T08:30:34;14.50;99.90
16384;DHT22;8301;51.440;6.610;2022-11-09T08:33:01;14.90;99.90
16384;DHT22;8301;51.440;6.610;2022-11-09T08:35:28;14.70;99.90
16384;DHT22;8301;51.440;6.610;2022-11-09T08:37:58;14.90;99.90
16384;DHT22;8301;51.440;6.610;2022-11-09T08:40:24;14.80;99.90
16384;DHT22;8301;51.440;6.610;2022-11-09T08:42:52;14.80;99.90
16384;DHT22;8301;51.440;6.610;2022-11-09T08:45:20;14.90;99.90
16384;DHT22;8301;51.440;6.610;2022-11-09T08:47:55;15.20;99.90
16384;DHT22;8301;51.440;6.610;2022-11-09T08:50:22;15.10;99.90
16384;DHT22;8301;51.440;6.610;2022-11-09T08:52:52;14.80;99.90
16384;DHT22;8301;51.440;6.610;2022-11-09T08:55:22;14.70;99.90
16384;DHT22;8301;51.440;6.610;2022-11-09T08:57:53;14.80;99.90
16384;DHT22;8301;51.440;6.610;2022-11-09T09:00:17;15.10;99.90
16384;DHT22;8301;51.440;6.610;2022-11-09T09:02:45;14.70;99.90
16384;DHT22;8301;51.440;6.610;2022-11-09T09:05:14;14.40;99.90
16384;DHT22;8301;51.440;6.610;2022-11-09T09:07:41;14.50;99.90
16384;DHT22;8301;51.440;6.610;2022-11-09T09:10:08;14.50;99.90
16384;DHT22;8301;51.440;6.610;2022-11-09T09:12:37;14.30;99.90
16384;DHT22;8301;51.440;6.610;2022-11-09T09:15:04;14.40;99.90
16384;DHT22;8301;51.440;6.610;2022-11-09T09:17:31;14.20;99.90
16384;DHT22;8301;51.440;6.610;2022-11-09T09:20:00;14.00;99.90
16384;DHT22;8301;51.440;6.610;2022-11-09T09:22:29;13.90;99.90
16384;DHT22;8301;51.440;6.610;2022-11-09T09:25:04;14.00;99.90
16384;DHT22;8301;51.440;6.610;2022-11-09T09:27:33;14.00;99.90
16384;DHT22;8301;51.440;6.610;2022-11-09T09:29:59;14.00;99.90
16384;DHT22;8301;51.440;6.610;2022-11-09T09:32:27;14.00;99.90
16384;DHT22;8301;51.440;6.610;2022-11-09T09:34:54;14.00;99.90
16384;DHT22;8301;51.440;6.610;2022-11-09T09:37:22;14.00;99.90
16384;DHT22;8301;51.440;6.610;2022-11-09T09:39:49;13.90;99.90
16384;DHT22;8301;51.440;6.610;2022-11-09T09:42:19;13.90;99.90
16384;DHT22;8301;51.440;6.610;2022-11-09T09:45:02;13.80;99.90
16384;DHT22;8301;51.440;6.610;2022-11-09T09:47:52;14.00;99.90
16384;DHT22;8301;51.440;6.610;2022-11-09T09:50:26;14.00;99.90
16384;DHT22;8301;51.440;6.610;2022-11-09T09:55:39;14.00;99.90
16384;DHT22;8301;51.440;6.610;2022-11-09T09:58:17;14.10;99.90
16384;DHT22;8301;51.440;6.610;2022-11-09T10:00:34;14.20;99.90
16384;DHT22;8301;51.440;6.610;2022-11-09T10:03:04;14.30;99.90
16384;DHT22;8301;51.440;6.610;2022-11-09T10:05:38;14.40;99.90
16384;DHT22;8301;51.440;6.610;2022-11-09T10:08:24;14.40;99.90
16384;DHT22;8301;51.440;6.610;2022-11-09T10:16:17;14.50;99.90
16384;DHT22;8301;51.440;6.610;2022-11-09T10:18:46;14.50;99.90
16384;DHT22;8301;51.440;6.610;2022-11-09T10:21:13;14.50;99.90
16384;DHT22;8301;51.440;6.610;2022-11-09T10:26:24;14.60;99.90
16384;DHT22;8301;51.440;6.610;2022-11-09T10:28:57;14.70;99.90
16384;DHT22;8301;51.440;6.610;2022-11-09T10:31:21;14.80;99.90
16384;DHT22;8301;51.440;6.610;2022-11-09T10:33:56;14.90;99.90
16384;DHT22;8301;51.440;6.610;2022-11-09T10:36:29;14.90;99.90
16384;DHT22;8301;51.440;6.610;2022-11-09T10:38:59;14.90;99.90
16384;DHT22;8301;51.440;6.610;2022-11-09T10:43:58;14.80;99.90
16384;DHT22;8301;51.440;6.610;2022-11-09T10:46:26;14.80;99.90
16384;DHT22;8301;51.440;6.610;2022-11-09T10:48:56;14.80;99.90
16384;DHT22;8301;51.440;6.610;2022-11-09T10:51:33;14.80;99.90
16384;DHT22;8301;51.440;6.610;2022-11-09T10:54:15;14.70;99.90
16384;DHT22;8301;51.440;6.610;2022-11-09T10:59:38;14.80;99.90
16384;DHT22;8301;51.440;6.610;2022-11-09T11:04:52;14.90;99.90
16384;DHT22;8301;51.440;6.610;2022-11-09T11:07:20;14.80;99.90
16384;DHT22;8301;51.440;6.610;2022-11-09T11:09:47;14.90;99.90
16384;DHT22;8301;51.440;6.610;2022-11-09T11:12:23;14.90;99.90
16384;DHT22;8301;51.440;6.610;2022-11-09T11:14:53;15.00;99.90
16384;DHT22;8301;51.440;6.610;2022-11-09T11:17:25;14.90;99.90
16384;DHT22;8301;51.440;6.610;2022-11-09T11:19:49;14.80;99.90
16384;DHT22;8301;51.440;6.610;2022-11-09T11:22:17;14.80;99.90
16384;DHT22;8301;51.440;6.610;2022-11-09T11:24:52;14.80;99.90
16384;DHT22;8301;51.440;6.610;2022-11-09T11:32:30;14.80;99.90
16384;DHT22;8301;51.440;6.610;2022-11-09T11:34:58;14.90;99.90
16384;DHT22;8301;51.440;6.610;2022-11-09T11:40:35;15.00;99.90
16384;DHT22;8301;51.440;6.610;2022-11-09T11:43:05;15.00;99.90
16384;DHT22;8301;51.440;6.610;2022-11-09T11:50:51;14.90;99.90
16384;DHT22;8301;51.440;6.610;2022-11-09T11:53:38;14.90;99.90
16384;DHT22;8301;51.440;6.610;2022-11-09T11:56:10;14.90;99.90
16384;DHT22;8301;51.440;6.610;2022-11-09T11:58:47;14.90;99.90
16384;DHT22;8301;51.440;6.610;2022-11-09T12:03:45;14.70;99.90
16384;DHT22;8301;51.440;6.610;2022-11-09T12:09:00;14.60;99.90
16384;DHT22;8301;51.440;6.610;2022-11-09T12:11:41;14.50;99.90
16384;DHT22;8301;51.440;6.610;2022-11-09T12:14:27;14.60;99.90
16384;DHT22;8301;51.440;6.610;2022-11-09T12:17:06;14.70;99.90
16384;DHT22;8301;51.440;6.610;2022-11-09T12:19:52;14.80;99.90
16384;DHT22;8301;51.440;6.610;2022-11-09T12:28:13;14.70;99.90
16384;DHT22;8301;51.440;6.610;2022-11-09T12:30:52;14.80;99.90
16384;DHT22;8301;51.440;6.610;2022-11-09T12:33:38;14.70;99.90
16384;DHT22;8301;51.440;6.610;2022-11-09T12:35:57;14.60;99.90
16384;DHT22;8301;51.440;6.610;2022-11-09T12:38:31;14.60;99.90
16384;DHT22;8301;51.440;6.610;2022-11-09T12:41:04;14.60;99.90
16384;DHT22;8301;51.440;6.610;2022-11-09T12:43:33;14.60;99.90
16384;DHT22;8301;51.440;6.610;2022-11-09T12:46:00;14.50;99.90
16384;DHT22;8301;51.440;6.610;2022-11-09T12:48:33;14.60;99.90
16384;DHT22;8301;51.440;6.610;2022-11-09T12:51:02;14.60;99.90
16384;DHT22;8301;51.440;6.610;2022-11-09T12:53:36;14.50;99.90
16384;DHT22;8301;51.440;6.610;2022-11-09T12:56:00;14.60;99.90
16384;DHT22;8301;51.440;6.610;2022-11-09T12:58:28;14.60;99.90
16384;DHT22;8301;51.440;6.610;2022-11-09T13:00:57;14.80;99.90
16384;DHT22;8301;51.440;6.610;2022-11-09T13:03:25;14.80;99.90
16384;DHT22;8301;51.440;6.610;2022-11-09T13:06:12;14.70;99.90
16384;DHT22;8301;51.440;6.610;2022-11-09T13:08:40;14.70;99.90
16384;DHT22;8301;51.440;6.610;2022-11-09T13:11:16;14.60;99.90
16384;DHT22;8301;51.440;6.610;2022-11-09T13:13:38;14.50;99.90
16384;DHT22;8301;51.440;6.610;2022-11-09T13:16:08;14.50;99.90
16384;DHT22;8301;51.440;6.610;2022-11-09T13:23:55;14.40;99.90
16384;DHT22;8301;51.440;6.610;2022-11-09T13:26:25;14.50;99.90
16384;DHT22;8301;51.440;6.610;2022-11-09T13:29:19;14.50;99.90
16384;DHT22;8301;51.440;6.610;2022-11-09T13:34:38;14.50;99.90
16384;DHT22;8301;51.440;6.610;2022-11-09T13:37:53;14.40;99.90
16384;DHT22;8301;51.440;6.610;2022-11-09T13:39:33;14.40;99.90
16384;DHT22;8301;51.440;6.610;2022-11-09T13:42:02;14.40;99.90
16384;DHT22;8301;51.440;6.610;2022-11-09T13:44:31;14.40;99.90
16384;DHT22;8301;51.440;6.610;2022-11-09T13:46:59;14.40;99.90
16384;DHT22;8301;51.440;6.610;2022-11-09T13:49:38;14.40;99.90
16384;DHT22;8301;51.440;6.610;2022-11-09T13:52:02;14.40;99.90
16384;DHT22;8301;51.440;6.610;2022-11-09T13:54:36;14.40;99.90
16384;DHT22;8301;51.440;6.610;2022-11-09T13:57:03;14.30;99.90
16384;DHT22;8301;51.440;6.610;2022-11-09T13:59:53;14.30;99.90
16384;DHT22;8301;51.440;6.610;2022-11-09T14:02:14;14.30;99.90
16384;DHT22;8301;51.440;6.610;2022-11-09T14:04:42;14.30;99.90
16384;DHT22;8301;51.440;6.610;2022-11-09T14:12:31;14.20;99.90
16384;DHT22;8301;51.440;6.610;2022-11-09T14:15:00;14.20;99.90
16384;DHT22;8301;51.440;6.610;2022-11-09T14:20:09;14.20;99.90
16384;DHT22;8301;51.440;6.610;2022-11-09T14:22:34;14.20;99.90
16384;DHT22;8301;51.440;6.610;2022-11-09T14:25:21;14.20;99.90
16384;DHT22;8301;51.440;6.610;2022-11-09T14:27:49;14.20;99.90
16384;DHT22;8301;51.440;6.610;2022-11-09T14:30:19;14.10;99.90
16384;DHT22;8301;51.440;6.610;2022-11-09T14:32:48;14.00;99.90
16384;DHT22;8301;51.440;6.610;2022-11-09T14:37:47;14.00;99.90
16384;DHT22;8301;51.440;6.610;2022-11-09T14:40:15;13.90;99.90
16384;DHT22;8301;51.440;6.610;2022-11-09T14:42:59;13.90;99.90
16384;DHT22;8301;51.440;6.610;2022-11-09T14:45:34;13.80;99.90
16384;DHT22;8301;51.440;6.610;2022-11-09T14:48:00;13.80;99.90
16384;DHT22;8301;51.440;6.610;2022-11-09T14:50:35;13.80;99.90
16384;DHT22;8301;51.440;6.610;2022-11-09T14:53:03;13.80;99.90
16384;DHT22;8301;51.440;6.610;2022-11-09T14:55:33;13.90;99.90
16384;DHT22;8301;51.440;6.610;2022-11-09T14:58:01;13.90;99.90
16384;DHT22;8301;51.440;6.610;2022-11-09T15:00:37;13.90;99.90
16384;DHT22;8301;51.440;6.610;2022-11-09T15:05:48;13.70;99.90
16384;DHT22;8301;51.440;6.610;2022-11-09T15:08:19;13.70;99.90
16384;DHT22;8301;51.440;6.610;2022-11-09T15:10:50;13.70;99.90
16384;DHT22;8301;51.440;6.610;2022-11-09T15:13:32;13.70;99.90
16384;DHT22;8301;51.440;6.610;2022-11-09T15:15:59;13.60;99.90
16384;DHT22;8301;51.440;6.610;2022-11-09T15:18:28;13.70;99.90
16384;DHT22;8301;51.440;6.610;2022-11-09T15:23:47;13.40;99.90
16384;DHT22;8301;51.440;6.610;2022-11-09T15:26:26;13.40;99.90
16384;DHT22;8301;51.440;6.610;2022-11-09T15:28:56;13.30;99.90
16384;DHT22;8301;51.440;6.610;2022-11-09T15:31:24;13.20;99.90
16384;DHT22;8301;51.440;6.610;2022-11-09T15:33:53;13.10;99.90
16384;DHT22;8301;51.440;6.610;2022-11-09T15:36:31;13.00;99.90
16384;DHT22;8301;51.440;6.610;2022-11-09T15:41:36;12.90;99.90
16384;DHT22;8301;51.440;6.610;2022-11-09T15:44:04;12.90;99.90
16384;DHT22;8301;51.440;6.610;2022-11-09T15:46:36;12.80;99.90
16384;DHT22;8301;51.440;6.610;2022-11-09T15:51:48;12.70;99.90
16384;DHT22;8301;51.440;6.610;2022-11-09T15:54:15;12.60;99.90
16384;DHT22;8301;51.440;6.610;2022-11-09T15:56:43;12.50;99.90
16384;DHT22;8301;51.440;6.610;2022-11-09T15:59:21;12.50;99.90
16384;DHT22;8301;51.440;6.610;2022-11-09T16:01:44;12.50;99.90
16384;DHT22;8301;51.440;6.610;2022-11-09T16:04:11;12.50;99.90
16384;DHT22;8301;51.440;6.610;2022-11-09T16:06:39;12.40;99.90
16384;DHT22;8301;51.440;6.610;2022-11-09T16:09:09;12.40;99.90
16384;DHT22;8301;51.440;6.610;2022-11-09T16:11:35;12.30;99.90
16384;DHT22;8301;51.440;6.610;2022-11-09T16:14:11;12.20;99.90
16384;DHT22;8301;51.440;6.610;2022-11-09T16:16:40;12.20;99.90
16384;DHT22;8301;51.440;6.610;2022-11-09T16:19:09;12.10;99.90
16384;DHT22;8301;51.440;6.610;2022-11-09T16:21:44;12.10;99.90
16384;DHT22;8301;51.440;6.610;2022-11-09T16:24:16;12.10;99.90
16384;DHT22;8301;51.440;6.610;2022-11-09T16:26:45;12.10;99.90
16384;DHT22;8301;51.440;6.610;2022-11-09T16:29:16;12.00;99.90
16384;DHT22;8301;51.440;6.610;2022-11-09T16:31:44;12.00;99.90
16384;DHT22;8301;51.440;6.610;2022-11-09T16:34:12;12.00;99.90
16384;DHT22;8301;51.440;6.610;2022-11-09T16:36:39;11.90;99.90
16384;DHT22;8301;51.440;6.610;2022-11-09T16:39:07;11.90;99.90
16384;DHT22;8301;51.440;6.610;2022-11-09T16:41:36;11.90;99.90
16384;DHT22;8301;51.440;6.610;2022-11-09T16:44:03;11.90;99.90
16384;DHT22;8301;51.440;6.610;2022-11-09T16:46:30;11.80;99.90
16384;DHT22;8301;51.440;6.610;2022-11-09T16:49:00;11.90;99.90
16384;DHT22;8301;51.440;6.610;2022-11-09T16:51:29;11.90;99.90
16384;DHT22;8301;51.440;6.610;2022-11-09T16:53:56;11.80;99.90
16384;DHT22;8301;51.440;6.610;2022-11-09T16:56:23;11.80;99.90
16384;DHT22;8301;51.440;6.610;2022-11-09T16:58:51;11.90;99.90
16384;DHT22;8301;51.440;6.610;2022-11-09T17:01:17;12.00;99.90
16384;DHT22;8301;51.440;6.610;2022-11-09T17:03:47;12.10;99.90
16384;DHT22;8301;51.440;6.610;2022-11-09T17:06:23;12.00;99.90
16384;DHT22;8301;51.440;6.610;2022-11-09T17:08:56;12.00;99.90
16384;DHT22;8301;51.440;6.610;2022-11-09T17:11:23;11.90;99.90
16384;DHT22;8301;51.440;6.610;2022-11-09T17:13:53;11.90;99.90
16384;DHT22;8301;51.440;6.610;2022-11-09T17:16:24;11.90;99.90
16384;DHT22;8301;51.440;6.610;2022-11-09T17:18:52;12.00;99.90
16384;DHT22;8301;51.440;6.610;2022-11-09T17:21:22;12.00;99.90
16384;DHT22;8301;51.440;6.610;2022-11-09T17:23:50;12.00;99.90
16384;DHT22;8301;51.440;6.610;2022-11-09T17:26:18;12.10;99.90